Time;durP1;ratioP1;P1;durP2;ratioP2;P2;SDS_P1;SDS_P2;PMS_P1;PMS_P2;Temp;Humidity;BMP_temperature;BMP_pressure;BME280_temperature;BME280_humidity;BME280_pressure;Samples;Min_cycle;Max_cycle;Signal;HPM_P1;HPM_P2
2021/10/25 00:01:32;;;;;;;0.60;0.60;;;;;;;-1.59;82.33;100644.06;5034274;28;20529;-66
2021/10/25 00:03:58;;;;;;;0.60;0.60;;;;;;;-1.64;82.13;100649.53;5031779;28;20091;-67
2021/10/25 00:06:24;;;;;;;0.60;0.60;;;;;;;-1.74;82.75;100646.31;5033651;28;20061;-67
2021/10/25 00:08:50;;;;;;;0.60;0.60;;;;;;;-1.75;82.29;100644.56;5032892;28;20049;-66
2021/10/25 00:11:16;;;;;;;0.60;0.60;;;;;;;-1.68;82.64;100660.25;5034153;28;20064;-67
2021/10/25 00:13:42;;;;;;;0.60;0.60;;;;;;;-1.71;82.68;100662.09;5033494;28;20120;-68
2021/10/25 00:16:08;;;;;;;0.60;0.60;;;;;;;-1.70;82.77;100663.84;5032848;28;20058;-67
2021/10/25 00:18:34;;;;;;;0.60;0.60;;;;;;;-1.70;82.27;100673.56;5033868;28;20045;-68
2021/10/25 00:21:02;;;;;;;0.50;0.50;;;;;;;-1.74;83.52;100672.81;5014353;28;20450;-67
2021/10/25 00:23:28;;;;;;;0.60;0.60;;;;;;;-1.78;83.61;100665.88;5014288;28;20069;-66
2021/10/25 00:25:53;;;;;;;0.60;0.60;;;;;;;-1.81;84.13;100663.31;5030566;28;20148;-66
2021/10/25 00:28:19;;;;;;;0.60;0.60;;;;;;;-1.84;83.93;100655.44;5030770;28;20046;-67
2021/10/25 00:30:45;;;;;;;0.60;0.60;;;;;;;-1.83;84.10;100666.91;5030236;28;20524;-67
2021/10/25 00:33:11;;;;;;;0.60;0.60;;;;;;;-1.84;84.77;100668.69;5031219;28;20132;-67
2021/10/25 00:35:37;;;;;;;0.60;0.60;;;;;;;-1.85;84.31;100661.69;5031366;28;20092;-67
2021/10/25 00:38:03;;;;;;;0.60;0.60;;;;;;;-1.89;84.80;100673.28;5031305;28;20539;-66
2021/10/25 00:40:30;;;;;;;0.60;0.60;;;;;;;-1.88;84.78;100675.00;5031186;28;20493;-66
2021/10/25 00:42:56;;;;;;;0.60;0.60;;;;;;;-1.88;84.95;100675.00;5013332;28;20074;-67
2021/10/25 00:45:22;;;;;;;0.52;0.52;;;;;;;-1.93;85.01;100682.25;5028589;28;20092;-66
2021/10/25 00:47:48;;;;;;;0.60;0.60;;;;;;;-1.92;84.85;100694.56;5031356;28;20045;-67
2021/10/25 00:50:14;;;;;;;0.60;0.60;;;;;;;-1.92;85.11;100699.88;5031303;28;20085;-68
2021/10/25 00:52:41;;;;;;;0.60;0.60;;;;;;;-1.92;84.77;100704.31;5013566;28;20140;-67
2021/10/25 00:55:08;;;;;;;0.60;0.60;;;;;;;-1.97;85.17;100692.06;4996755;28;20521;-66
2021/10/25 00:57:35;;;;;;;0.60;0.60;;;;;;;-1.98;85.33;100700.06;5033827;28;20416;-67
2021/10/25 01:00:02;;;;;;;0.60;0.60;;;;;;;-1.97;85.60;100701.81;5015428;28;20073;-66
2021/10/25 01:02:29;;;;;;;0.60;0.60;;;;;;;-2.01;85.15;100703.69;5031547;28;20410;-67
2021/10/25 01:04:55;;;;;;;0.60;0.60;;;;;;;-2.02;85.42;100714.31;5034221;28;20053;-66
2021/10/25 01:07:21;;;;;;;0.60;0.60;;;;;;;-2.06;85.76;100712.66;5015100;28;20461;-67
2021/10/25 01:09:47;;;;;;;0.60;0.60;;;;;;;-2.08;86.11;100711.84;5031054;28;20192;-66
2021/10/25 01:12:15;;;;;;;0.60;0.60;;;;;;;-2.10;86.02;100711.03;5031283;28;20140;-66
2021/10/25 01:14:41;;;;;;;0.60;0.60;;;;;;;-2.12;85.89;100723.44;5030932;28;20117;-66
2021/10/25 01:17:07;;;;;;;0.60;0.60;;;;;;;-2.14;86.25;100714.69;5030826;28;20104;-67
2021/10/25 01:19:33;;;;;;;0.60;0.60;;;;;;;-2.15;86.32;100718.25;5012790;28;20064;-68
2021/10/25 01:22:07;;;;;;;0.60;0.60;;;;;;;-2.18;86.29;100724.50;5012443;28;20088;-68
2021/10/25 01:24:34;;;;;;;0.60;0.60;;;;;;;-2.19;86.54;100723.63;5012773;28;20152;-67
2021/10/25 01:27:00;;;;;;;0.60;0.60;;;;;;;-2.21;86.68;100730.75;5012740;28;20140;-67
2021/10/25 01:29:26;;;;;;;0.60;0.60;;;;;;;-2.22;87.01;100734.31;5030363;28;20582;-66
2021/10/25 01:31:52;;;;;;;0.70;0.70;;;;;;;-2.23;86.74;100737.88;5012630;28;20053;-66
2021/10/25 01:34:19;;;;;;;0.60;0.60;;;;;;;-2.25;86.31;100728.22;5012419;28;20064;-67
2021/10/25 01:36:45;;;;;;;0.60;0.60;;;;;;;-2.22;87.09;100728.16;5030703;28;20258;-66
2021/10/25 01:39:11;;;;;;;0.60;0.60;;;;;;;-2.21;86.58;100735.16;5012341;28;20056;-67
2021/10/25 01:41:37;;;;;;;0.60;0.60;;;;;;;-2.26;86.86;100737.09;5012322;28;20509;-70
2021/10/25 01:44:11;;;;;;;0.60;0.60;;;;;;;-2.23;86.85;100729.94;5012354;28;20057;-68
2021/10/25 01:46:37;;;;;;;0.60;0.60;;;;;;;-2.22;86.61;100739.59;5028661;28;20053;-67
2021/10/25 01:49:05;;;;;;;0.60;0.60;;;;;;;-2.17;86.59;100741.25;5028244;28;20516;-67
2021/10/25 01:51:32;;;;;;;0.60;0.60;;;;;;;-2.21;86.84;100746.63;5011941;28;20108;-68
2021/10/25 01:53:58;;;;;;;0.60;0.60;;;;;;;-2.24;86.90;100746.72;5012163;28;20100;-67
2021/10/25 01:56:26;;;;;;;0.60;0.60;;;;;;;-2.24;86.88;100756.44;5011351;28;20474;-67
2021/10/25 01:58:53;;;;;;;0.60;0.60;;;;;;;-2.27;86.87;100757.38;4995425;28;20712;-67
2021/10/25 02:01:21;;;;;;;0.60;0.60;;;;;;;-2.26;86.70;100759.16;5011782;28;20053;-67
2021/10/25 02:03:47;;;;;;;0.60;0.60;;;;;;;-2.29;86.96;100753.06;5029211;28;20536;-66
2021/10/25 02:06:20;;;;;;;0.63;0.63;;;;;;;-2.29;87.07;100761.88;5029975;28;20107;-67
2021/10/25 02:08:47;;;;;;;0.60;0.60;;;;;;;-2.31;86.95;100766.34;5011717;28;20523;-66
2021/10/25 02:11:16;;;;;;;0.60;0.60;;;;;;;-2.33;86.94;100760.22;4996508;28;20061;-66
2021/10/25 02:13:50;;;;;;;0.60;0.60;;;;;;;-2.36;87.71;100767.38;5012857;28;20057;-67
2021/10/25 02:16:16;;;;;;;0.60;0.60;;;;;;;-2.35;87.30;100775.28;5028984;28;20056;-67
2021/10/25 02:18:42;;;;;;;0.60;0.60;;;;;;;-2.37;87.65;100779.75;5012358;28;20139;-66
2021/10/25 02:21:11;;;;;;;0.60;0.60;;;;;;;-2.39;87.28;100789.50;5011529;28;20577;-67
2021/10/25 02:23:38;;;;;;;0.70;0.70;;;;;;;-2.39;87.54;100784.22;5011760;28;20133;-66
2021/10/25 02:26:04;;;;;;;0.60;0.60;;;;;;;-2.37;87.28;100790.34;4995275;28;20127;-65
2021/10/25 02:28:32;;;;;;;0.60;0.60;;;;;;;-2.35;86.83;100785.88;4995345;28;20178;-66
2021/10/25 02:30:58;;;;;;;0.60;0.60;;;;;;;-2.35;87.52;100796.47;5027839;28;20046;-66
2021/10/25 02:33:30;;;;;;;0.60;0.60;;;;;;;-2.35;87.49;100799.09;5011318;28;20060;-68
2021/10/25 02:35:56;;;;;;;0.60;0.60;;;;;;;-2.37;87.20;100795.66;5011411;28;20089;-67
2021/10/25 02:38:23;;;;;;;0.60;0.60;;;;;;;-2.38;86.96;100800.97;5011523;28;20057;-66
2021/10/25 02:40:55;;;;;;;0.60;0.60;;;;;;;-2.42;87.20;100800.19;5011313;28;20085;-68
2021/10/25 02:43:21;;;;;;;0.70;0.70;;;;;;;-2.42;87.27;100806.34;5011606;28;20053;-67
2021/10/25 02:45:47;;;;;;;0.70;0.70;;;;;;;-2.42;87.30;100800.19;5011051;28;20116;-68
2021/10/25 02:48:13;;;;;;;0.60;0.60;;;;;;;-2.43;87.44;100803.75;5011067;28;20049;-67
2021/10/25 02:50:40;;;;;;;0.70;0.70;;;;;;;-2.47;87.42;100797.66;5028031;28;20053;-67
2021/10/25 02:53:11;;;;;;;0.70;0.70;;;;;;;-2.49;87.78;100798.59;4995784;28;20116;-67
2021/10/25 02:55:37;;;;;;;0.70;0.70;;;;;;;-2.50;87.73;100796.88;5012243;28;20059;-68
2021/10/25 02:58:04;;;;;;;0.70;0.70;;;;;;;-2.51;87.68;100795.16;5028728;28;20478;-67
2021/10/25 03:00:32;;;;;;;0.60;0.60;;;;;;;-2.58;88.15;100782.97;5011647;28;20060;-66
2021/10/25 03:03:01;;;;;;;0.70;0.70;;;;;;;-2.46;87.91;100798.53;5011887;28;20057;-69
2021/10/25 03:05:28;;;;;;;0.70;0.70;;;;;;;-2.47;87.99;100804.75;5011066;28;20143;-67
2021/10/25 03:07:54;;;;;;;0.70;0.70;;;;;;;-2.43;87.97;100809.03;5012212;28;20049;-67
2021/10/25 03:10:20;;;;;;;0.60;0.60;;;;;;;-2.42;87.66;100810.78;5015042;28;20123;-66
2021/10/25 03:12:48;;;;;;;0.70;0.70;;;;;;;-2.43;87.47;100816.97;4975043;28;20115;-67
2021/10/25 03:15:16;;;;;;;0.70;0.70;;;;;;;-2.45;88.09;100821.44;5032786;28;20057;-68
2021/10/25 03:17:43;;;;;;;0.70;0.70;;;;;;;-2.45;88.00;100826.72;5014785;28;20096;-68
2021/10/25 03:20:15;;;;;;;0.60;0.60;;;;;;;-2.46;88.35;100822.34;5015218;28;20049;-68
2021/10/25 03:22:45;;;;;;;0.60;0.60;;;;;;;-2.47;88.16;100828.56;5033240;28;20049;-67
2021/10/25 03:25:14;;;;;;;0.60;0.60;;;;;;;-2.49;87.99;100819.78;5014949;28;20412;-67
2021/10/25 03:27:40;;;;;;;0.68;0.68;;;;;;;-2.47;88.43;100828.56;5015153;28;20054;-69
2021/10/25 03:30:08;;;;;;;0.70;0.70;;;;;;;-2.51;88.29;100811.03;4998763;28;20046;-67
2021/10/25 03:32:38;;;;;;;0.70;0.70;;;;;;;-2.59;88.54;100813.00;5014571;28;20180;-68
2021/10/25 03:35:23;;;;;;;0.60;0.60;;;;;;;-2.53;88.79;100824.28;5031162;28;20489;-68
2021/10/25 03:37:49;;;;;;;0.65;0.65;;;;;;;-2.52;88.68;100833.13;5014512;28;20053;-67
2021/10/25 03:40:16;;;;;;;0.65;0.65;;;;;;;-2.55;88.89;100834.06;5014558;28;20048;-67
2021/10/25 03:42:48;;;;;;;0.60;0.60;;;;;;;-2.58;88.74;100835.91;4998012;28;20417;-68
2021/10/25 03:45:36;;;;;;;0.60;0.60;;;;;;;-2.60;89.22;100835.06;5014074;28;20049;-68
2021/10/25 03:48:10;;;;;;;0.70;0.70;;;;;;;-2.62;88.95;100839.56;5014246;28;20050;-67
2021/10/25 03:50:38;;;;;;;0.60;0.60;;;;;;;-2.61;88.83;100852.75;5031971;28;20073;-68
2021/10/25 03:53:37;;;;;;;0.70;0.70;;;;;;;-2.60;89.12;100848.31;5013851;28;20077;-67
2021/10/25 03:56:10;;;;;;;0.60;0.60;;;;;;;-2.60;88.79;100845.66;5014077;28;20657;-67
2021/10/25 04:01:24;;;;;;;0.60;0.60;;;;;;;-2.63;89.21;100854.56;5030798;28;20144;-68
2021/10/25 04:28:33;;;;;;;0.77;0.77;;;;;;;-2.68;89.32;100869.69;5013856;28;20140;-68
2021/10/25 04:31:00;;;;;;;0.80;0.80;;;;;;;-2.69;88.97;100875.88;4997430;28;20066;-68
2021/10/25 04:33:33;;;;;;;0.80;0.80;;;;;;;-2.64;89.32;100873.13;5026958;28;20053;-67
2021/10/25 04:36:11;;;;;;;0.70;0.70;;;;;;;-2.67;88.86;100867.00;5020062;28;20049;-69
2021/10/25 04:38:44;;;;;;;0.70;0.70;;;;;;;-2.61;88.84;100883.63;5012959;28;20050;-67
2021/10/25 04:41:10;;;;;;;0.70;0.70;;;;;;;-2.61;88.65;100878.34;5011703;28;20494;-67
2021/10/25 04:43:36;;;;;;;0.60;0.60;;;;;;;-2.57;88.54;100882.66;5012172;28;20087;-68
2021/10/25 04:46:02;;;;;;;0.75;0.75;;;;;;;-2.58;88.34;100883.56;5011421;28;20069;-68
2021/10/25 04:48:29;;;;;;;0.70;0.70;;;;;;;-2.53;87.92;100886.94;5011008;28;20580;-68
2021/10/25 04:51:07;;;;;;;0.70;0.70;;;;;;;-2.50;87.84;100897.47;4994893;28;20456;-69
2021/10/25 04:53:53;;;;;;;0.70;0.70;;;;;;;-2.44;87.42;100899.97;5000481;28;20057;-69
2021/10/25 04:56:23;;;;;;;0.70;0.70;;;;;;;-2.35;87.24;100907.69;4982017;28;20483;-68
2021/10/25 04:58:48;;;;;;;0.70;0.70;;;;;;;-2.23;87.68;100917.97;4995040;28;20103;-68
2021/10/25 05:01:14;;;;;;;0.80;0.80;;;;;;;-2.11;86.89;100915.91;5022349;28;20164;-69
2021/10/25 05:03:40;;;;;;;1.00;1.00;;;;;;;-1.56;85.64;100915.28;5010251;28;20139;-68
2021/10/25 05:06:07;;;;;;;1.10;1.10;;;;;;;-1.00;83.04;100914.50;5009927;28;20092;-69
2021/10/25 05:08:39;;;;;;;1.00;1.00;;;;;;;-0.47;79.78;100919.94;4995035;28;20743;-71
2021/10/25 05:11:06;;;;;;;0.90;0.90;;;;;;;0.02;77.37;100918.25;5005675;28;20088;-70
2021/10/25 05:13:32;;;;;;;0.70;0.70;;;;;;;0.23;77.04;100914.84;5027143;28;20551;-69
2021/10/25 05:15:58;;;;;;;0.93;0.93;;;;;;;0.75;74.87;100929.84;4986136;28;20089;-69
2021/10/25 05:18:23;;;;;;;1.10;1.10;;;;;;;1.45;71.90;100932.41;5007310;28;20118;-68
2021/10/25 05:20:49;;;;;;;1.10;1.10;;;;;;;2.09;70.15;100929.75;5011622;28;20072;-68
2021/10/25 05:23:16;;;;;;;1.10;1.10;;;;;;;2.81;67.58;100928.31;5011351;28;20064;-69
2021/10/25 05:25:42;;;;;;;1.10;1.10;;;;;;;2.97;65.09;100934.72;5025968;28;20621;-68
2021/10/25 05:28:08;;;;;;;1.10;1.10;;;;;;;3.55;63.65;100931.06;5005042;28;20072;-69
2021/10/25 05:30:34;;;;;;;1.00;1.00;;;;;;;4.09;61.61;100937.25;5008898;28;20391;-69
2021/10/25 05:33:01;;;;;;;1.10;1.10;;;;;;;4.43;59.76;100947.13;5014514;28;20049;-66
2021/10/25 05:35:27;;;;;;;1.05;1.05;;;;;;;5.03;58.83;100951.94;5006829;28;20064;-69
2021/10/25 05:37:53;;;;;;;1.10;1.10;;;;;;;4.58;57.92;100946.28;5011270;28;20075;-68
2021/10/25 05:40:19;;;;;;;1.20;1.20;;;;;;;5.41;57.73;100955.19;4994585;28;20359;-67
2021/10/25 05:42:51;;;;;;;1.10;1.10;;;;;;;6.01;55.15;100957.16;5010941;28;20539;-70
2021/10/25 05:45:17;;;;;;;1.20;1.20;;;;;;;6.29;54.06;100956.38;4991547;28;20045;-67
2021/10/25 05:47:43;;;;;;;1.20;1.20;;;;;;;6.68;52.79;100961.16;5025698;28;20107;-68
2021/10/25 05:50:11;;;;;;;1.20;1.20;;;;;;;7.28;51.49;100957.41;4988471;28;20045;-74
2021/10/25 05:52:37;;;;;;;1.20;1.20;;;;;;;7.64;50.56;100955.97;4964862;28;20057;-69
2021/10/25 05:55:03;;;;;;;1.30;1.20;;;;;;;8.36;49.53;100957.41;4997085;28;20057;-71
2021/10/25 05:57:30;;;;;;;1.20;1.20;;;;;;;8.78;47.34;100962.69;4998084;28;20085;-77
2021/10/25 05:59:56;;;;;;;1.20;1.20;;;;;;;9.27;45.65;100959.19;4980076;28;20131;-73
2021/10/25 06:02:26;;;;;;;1.25;1.25;;;;;;;9.52;45.42;100958.28;4979760;28;20521;-78
2021/10/25 06:05:12;;;;;;;1.10;1.10;;;;;;;9.62;43.83;100954.78;5003048;28;20148;-74
2021/10/25 06:07:47;;;;;;;1.10;1.10;;;;;;;9.98;43.87;100954.84;5009625;28;20525;-70
2021/10/25 06:10:14;;;;;;;1.10;1.10;;;;;;;9.89;43.48;100956.41;4998605;28;20460;-73
2021/10/25 06:12:49;;;;;;;0.90;0.90;;;;;;;9.70;43.93;100962.31;4994728;28;20305;-73
2021/10/25 06:15:18;;;;;;;0.90;0.90;;;;;;;9.98;43.47;100954.84;4982541;28;20064;-70
2021/10/25 06:17:55;;;;;;;0.70;0.70;;;;;;;9.97;42.80;100953.13;5001489;28;20049;-75
2021/10/25 06:20:31;;;;;;;0.77;0.77;;;;;;;9.86;42.88;100957.50;4995767;28;20163;-75
2021/10/25 06:23:10;;;;;;;0.80;0.80;;;;;;;7.79;47.23;100963.06;5008086;28;20062;-73
2021/10/25 06:25:45;;;;;;;0.80;0.80;;;;;;;7.49;48.34;100965.91;5008569;28;20098;-74
2021/10/25 06:28:34;;;;;;;0.80;0.80;;;;;;;7.55;48.41;100975.44;5015616;28;20088;-73
2021/10/25 06:31:08;;;;;;;0.70;0.70;;;;;;;7.47;49.22;100973.25;5001509;28;20047;-73
2021/10/25 06:33:52;;;;;;;0.70;0.70;;;;;;;7.06;48.87;100978.53;5000062;28;20084;-73
2021/10/25 06:36:34;;;;;;;0.70;0.70;;;;;;;5.24;52.82;100980.25;5009696;28;20421;-75
2021/10/25 06:39:14;;;;;;;0.70;0.70;;;;;;;4.21;56.97;100973.25;5020375;28;20111;-74
2021/10/25 06:41:50;;;;;;;0.70;0.70;;;;;;;3.70;58.23;100982.94;4984851;28;20053;-74
2021/10/25 06:44:24;;;;;;;0.70;0.70;;;;;;;3.80;59.09;100979.75;4979456;28;20112;-72
2021/10/25 06:46:54;;;;;;;0.70;0.70;;;;;;;3.67;59.30;100977.72;4998146;28;20072;-71
2021/10/25 06:49:21;;;;;;;0.80;0.80;;;;;;;4.10;59.05;100982.69;5007849;28;20197;-74
2021/10/25 06:51:48;;;;;;;0.80;0.80;;;;;;;4.13;58.31;100986.13;4990429;28;20073;-72
2021/10/25 06:54:14;;;;;;;0.80;0.80;;;;;;;4.04;57.51;100974.97;4982476;28;20053;-73
2021/10/25 06:56:40;;;;;;;0.80;0.80;;;;;;;3.75;59.07;100987.09;4987755;28;20168;-73
2021/10/25 06:59:06;;;;;;;0.80;0.80;;;;;;;3.41;59.64;100987.00;4993538;28;20076;-71
2021/10/25 07:01:36;;;;;;;0.80;0.80;;;;;;;3.62;59.68;100984.19;4998777;28;20061;-75
2021/10/25 07:04:02;;;;;;;0.90;0.90;;;;;;;3.62;59.83;100996.69;4995057;28;20061;-71
2021/10/25 07:06:35;;;;;;;0.73;0.73;;;;;;;2.87;61.26;100997.50;5011281;28;20062;-70
2021/10/25 07:09:04;;;;;;;0.80;0.80;;;;;;;2.81;62.11;101003.09;5009708;28;20057;-72
2021/10/25 07:11:30;;;;;;;0.90;0.90;;;;;;;2.91;62.48;100999.09;4994405;28;20062;-73
2021/10/25 07:13:57;;;;;;;0.90;0.90;;;;;;;3.27;61.44;101017.03;5011063;28;20049;-74
2021/10/25 07:16:36;;;;;;;1.00;1.00;;;;;;;3.50;61.14;101014.16;5011270;28;20069;-74
2021/10/25 08:09:58;;;;;;;0.80;0.80;;;;;;;3.50;60.39;101014.16;5013292;28;20073;-72
2021/10/25 08:12:12;;;;;;;0.70;0.70;;;;;;;4.00;58.85;101013.53;4998352;28;20046;-73
2021/10/25 08:14:40;;;;;;;0.70;0.70;;;;;;;4.41;58.66;101023.94;4979551;28;20057;-72
2021/10/25 08:17:08;;;;;;;0.70;0.70;;;;;;;4.24;58.03;101021.25;5010077;28;20053;-73
2021/10/25 08:19:34;;;;;;;0.77;0.77;;;;;;;4.18;58.68;101022.44;4996259;28;20062;-73
2021/10/25 08:22:05;;;;;;;0.70;0.70;;;;;;;4.57;58.03;101024.91;4995930;28;20137;-71
2021/10/25 08:24:35;;;;;;;0.90;0.90;;;;;;;4.90;56.72;101026.78;4996512;28;20637;-74
2021/10/25 08:27:13;;;;;;;1.10;1.10;;;;;;;5.90;54.48;101030.19;5010506;28;20042;-72
2021/10/25 08:29:40;;;;;;;1.00;1.00;;;;;;;6.73;52.01;101009.25;4995982;28;20144;-73
2021/10/25 08:40:36;;;;;;;0.90;0.90;;;;;;;6.55;50.13;101010.38;4996315;28;20048;-72
2021/10/25 08:43:03;;;;;;;1.30;1.30;;;;;;;7.90;47.35;101016.22;5012556;28;20057;-74
2021/10/25 08:45:32;;;;;;;1.50;1.50;;;;;;;9.74;43.53;101017.81;4995835;28;20053;-73
2021/10/25 08:48:04;;;;;;;1.60;1.60;;;;;;;11.32;40.21;101016.59;5012384;28;20553;-73
2021/10/25 08:50:35;;;;;;;1.50;1.50;;;;;;;12.42;37.40;101003.97;5011643;28;20077;-74
2021/10/25 08:53:11;;;;;;;1.50;1.50;;;;;;;13.82;35.36;101011.63;5009038;28;20135;-72
2021/10/25 08:55:52;;;;;;;1.40;1.40;;;;;;;14.60;33.49;101008.06;4996362;28;20402;-72
2021/10/25 08:58:20;;;;;;;1.30;1.30;;;;;;;11.94;36.10;101009.78;4998854;28;20149;-71
2021/10/25 09:00:52;;;;;;;1.40;1.40;;;;;;;11.14;38.07;101008.06;5011761;28;20053;-72
2021/10/25 09:03:23;;;;;;;1.30;1.30;;;;;;;11.42;37.40;101005.88;5012184;28;20061;-74
2021/10/25 09:05:59;;;;;;;1.20;1.20;;;;;;;12.09;35.99;101008.50;4994655;28;20124;-73
2021/10/25 09:08:29;;;;;;;1.30;1.30;;;;;;;13.22;36.15;101019.66;5027174;28;20509;-75
2021/10/25 09:10:56;;;;;;;1.30;1.30;;;;;;;13.71;33.79;101010.78;4996165;28;20045;-74
2021/10/25 09:13:24;;;;;;;1.30;1.30;;;;;;;14.53;32.71;101009.63;5030140;28;20060;-72
2021/10/25 09:15:56;;;;;;;1.30;1.30;;;;;;;15.15;30.38;101008.25;4997041;28;20436;-74
2021/10/25 09:18:45;;;;;;;1.30;1.30;;;;;;;14.78;31.23;101004.59;4993497;28;20191;-75
2021/10/25 09:21:15;;;;;;;0.85;0.85;;;;;;;14.66;31.34;101002.03;5000156;28;20373;-77
2021/10/25 09:23:44;;;;;;;0.60;0.60;;;;;;;13.73;32.51;101014.19;4985343;28;20132;-75
2021/10/25 09:26:22;;;;;;;0.80;0.80;;;;;;;13.66;33.28;101002.16;4978756;28;20049;-74
2021/10/25 09:28:51;;;;;;;1.20;1.20;;;;;;;14.04;31.82;100997.84;5028259;28;20136;-74
2021/10/25 09:31:25;;;;;;;0.90;0.90;;;;;;;14.05;31.09;101013.13;5026649;28;20065;-70
2021/10/25 09:33:55;;;;;;;1.00;1.00;;;;;;;13.97;31.04;101010.28;5001602;28;20091;-70
2021/10/25 09:36:35;;;;;;;1.00;1.00;;;;;;;11.13;34.96;101002.81;5000334;28;20050;-71
2021/10/25 09:39:17;;;;;;;0.90;0.90;;;;;;;10.76;36.11;100995.72;5027472;28;20053;-68
2021/10/25 09:42:18;;;;;;;0.90;0.90;;;;;;;10.21;37.32;100997.22;5011067;28;20057;-70
2021/10/25 09:50:24;;;;;;;1.60;1.60;;;;;;;11.14;36.91;100999.97;5025548;28;20057;-72
2021/10/25 09:52:53;;;;;;;1.00;1.00;;;;;;;11.75;35.87;100994.16;5009105;28;20073;-71
2021/10/25 09:55:20;;;;;;;1.00;1.00;;;;;;;12.51;34.48;101003.19;4998334;28;20045;-68
2021/10/25 10:00:32;;;;;;;1.00;1.00;;;;;;;10.66;36.31;100983.88;4984572;28;20132;-69
2021/10/25 10:02:59;;;;;;;1.00;1.00;;;;;;;10.32;37.27;100991.03;4984318;28;20390;-68
2021/10/25 10:05:50;;;;;;;0.90;0.90;;;;;;;9.59;38.13;100997.34;5021583;28;20258;-68
2021/10/25 10:08:21;;;;;;;0.90;0.90;;;;;;;9.19;38.39;100994.81;4997266;28;20131;-68
2021/10/25 10:10:47;;;;;;;1.10;1.10;;;;;;;10.29;36.58;100989.41;4981574;28;20057;-71
2021/10/25 10:13:19;;;;;;;1.02;1.02;;;;;;;9.25;37.66;100991.69;4995020;28;20096;-71
2021/10/25 10:16:00;;;;;;;1.20;1.20;;;;;;;9.69;36.73;100995.72;4984293;28;20057;-70
2021/10/25 10:18:30;;;;;;;1.00;1.00;;;;;;;11.44;35.25;100990.38;4974310;28;20053;-71
2021/10/25 10:21:32;;;;;;;1.00;1.00;;;;;;;12.30;33.26;100982.31;4917961;28;20198;-71
2021/10/25 10:24:10;;;;;;;1.10;1.10;;;;;;;13.27;31.48;100985.72;4978226;28;20057;-71
2021/10/25 10:26:38;;;;;;;1.08;1.08;;;;;;;13.53;30.36;100985.25;5026322;28;20053;-74
2021/10/25 10:29:11;;;;;;;1.10;1.10;;;;;;;13.07;30.70;100985.72;4998444;28;20060;-69
2021/10/25 10:32:00;;;;;;;1.10;1.10;;;;;;;14.33;29.58;100972.50;4995269;28;20107;-72
2021/10/25 10:34:43;;;;;;;1.00;1.00;;;;;;;14.94;28.62;100980.34;4985480;28;20052;-70
2021/10/25 10:37:28;;;;;;;0.90;0.90;;;;;;;14.76;28.04;100968.50;4988693;28;20080;-70
2021/10/25 10:40:07;;;;;;;1.00;1.00;;;;;;;13.40;29.86;100979.19;4998712;28;20100;-72
2021/10/25 10:42:58;;;;;;;0.90;0.90;;;;;;;12.91;31.67;100978.06;4985448;28;20057;-70
2021/10/25 10:45:26;;;;;;;1.00;1.00;;;;;;;12.98;31.18;100979.22;5007826;28;20081;-72
2021/10/25 10:48:01;;;;;;;1.00;1.00;;;;;;;14.02;29.80;100980.78;4982250;28;20057;-72
2021/10/25 10:50:38;;;;;;;0.90;0.90;;;;;;;14.42;29.44;100961.63;4995918;28;20174;-71
2021/10/25 10:56:17;;;;;;;0.80;0.80;;;;;;;9.98;34.02;100955.72;4991780;28;20064;-69
2021/10/25 11:01:19;;;;;;;0.90;0.90;;;;;;;10.29;34.59;100957.00;5026143;28;20057;-72
2021/10/25 11:03:59;;;;;;;0.90;0.90;;;;;;;11.51;32.99;100948.25;4994831;28;20054;-72
2021/10/25 11:06:35;;;;;;;0.90;0.90;;;;;;;12.25;31.38;100935.78;4995036;28;20537;-73
2021/10/25 11:09:09;;;;;;;0.90;0.90;;;;;;;12.70;31.07;100940.94;4994522;28;20064;-72
2021/10/25 11:11:37;;;;;;;0.90;0.90;;;;;;;12.97;30.61;100934.06;5010091;28;20120;-70
2021/10/25 11:14:06;;;;;;;1.00;1.00;;;;;;;13.46;29.94;100940.63;5010240;28;20532;-72
2021/10/25 11:16:39;;;;;;;0.70;0.70;;;;;;;13.48;29.77;100939.47;5009657;28;20065;-76
2021/10/25 11:19:06;;;;;;;0.60;0.60;;;;;;;13.10;30.62;100939.28;4992731;28;20045;-72
2021/10/25 11:21:36;;;;;;;0.70;0.70;;;;;;;12.79;31.42;100939.25;5029311;28;20077;-72
2021/10/25 11:24:05;;;;;;;0.60;0.60;;;;;;;11.31;33.08;100934.50;5015306;28;20064;-71
2021/10/25 11:26:46;;;;;;;0.60;0.60;;;;;;;10.92;33.12;100940.41;4992528;28;20045;-71
2021/10/25 11:29:15;;;;;;;0.70;0.70;;;;;;;10.07;34.12;100936.09;5023608;28;20041;-72
2021/10/25 11:31:51;;;;;;;0.60;0.60;;;;;;;10.28;34.24;100930.94;5044999;28;20064;-73
2021/10/25 11:34:20;;;;;;;0.50;0.50;;;;;;;10.22;34.49;100931.38;5048469;28;20617;-73
2021/10/25 11:37:17;;;;;;;0.70;0.70;;;;;;;10.35;34.59;100932.19;5030093;28;20077;-71
2021/10/25 11:42:26;;;;;;;0.77;0.77;;;;;;;9.78;35.19;100932.03;5031036;28;20053;-72
2021/10/25 11:44:54;;;;;;;0.90;0.90;;;;;;;9.61;35.76;100938.69;5025148;28;20136;-72
2021/10/25 11:47:24;;;;;;;0.80;0.80;;;;;;;10.37;34.09;100924.81;5014779;28;20140;-73
2021/10/25 11:49:57;;;;;;;0.80;0.80;;;;;;;10.28;33.94;100925.53;5031487;28;20402;-72
2021/10/25 11:52:23;;;;;;;0.70;0.70;;;;;;;9.95;34.98;100918.13;4998807;28;20054;-72
2021/10/25 11:54:52;;;;;;;0.50;0.50;;;;;;;9.41;35.70;100923.97;5022288;28;20108;-71
2021/10/25 11:57:20;;;;;;;0.40;0.40;;;;;;;7.20;39.86;100914.00;5014947;28;20140;-72
2021/10/25 12:00:05;;;;;;;0.40;0.40;;;;;;;7.01;41.13;100901.72;4998275;28;20057;-70
2021/10/25 12:02:38;;;;;;;0.80;0.80;;;;;;;8.10;39.59;100891.84;5015553;28;20440;-72
2021/10/25 12:05:05;;;;;;;0.75;0.75;;;;;;;8.09;39.19;100894.66;4998153;28;20065;-75
2021/10/25 12:07:32;;;;;;;0.80;0.80;;;;;;;7.87;40.04;100896.13;5014449;28;20053;-72
2021/10/25 12:10:03;;;;;;;0.80;0.80;;;;;;;7.70;40.10;100894.53;5007850;28;20085;-71
2021/10/25 12:12:30;;;;;;;0.80;0.80;;;;;;;8.13;39.10;100893.47;5014606;28;20053;-72
2021/10/25 12:15:02;;;;;;;0.90;0.90;;;;;;;8.60;39.53;100901.00;4998075;28;20054;-72
2021/10/25 12:17:36;;;;;;;0.90;0.90;;;;;;;9.54;37.14;100902.31;5032350;28;20088;-73
2021/10/25 12:20:07;;;;;;;0.80;0.80;;;;;;;9.76;36.37;100897.06;4997816;28;20096;-72
2021/10/25 12:22:33;;;;;;;0.70;0.70;;;;;;;9.83;35.70;100898.28;5014340;28;20064;-73
2021/10/25 12:24:59;;;;;;;0.70;0.70;;;;;;;9.33;36.66;100900.25;4981816;28;20144;-72
2021/10/25 12:27:32;;;;;;;0.60;0.60;;;;;;;7.49;40.02;100890.56;5014597;28;20053;-73
2021/10/25 12:30:09;;;;;;;0.50;0.50;;;;;;;8.19;39.74;100890.34;4982532;28;20161;-73
2021/10/25 12:32:39;;;;;;;0.52;0.52;;;;;;;7.97;40.14;100891.84;5014250;28;20593;-72
2021/10/25 12:35:06;;;;;;;0.40;0.40;;;;;;;8.22;40.04;100895.53;4998322;28;20060;-72
2021/10/25 12:37:33;;;;;;;0.40;0.40;;;;;;;6.66;42.47;100889.66;5032541;28;20056;-73
2021/10/25 12:40:00;;;;;;;0.50;0.50;;;;;;;5.51;45.69;100899.19;5014622;28;20058;-71
2021/10/25 12:42:39;;;;;;;0.40;0.40;;;;;;;5.05;46.92;100886.59;4998826;28;20103;-72
2021/10/25 12:45:13;;;;;;;0.50;0.50;;;;;;;4.58;48.86;100892.75;5014855;28;20057;-71
2021/10/25 12:47:39;;;;;;;0.50;0.50;;;;;;;4.59;48.50;100882.88;5013795;28;20584;-72
2021/10/25 12:50:05;;;;;;;0.50;0.50;;;;;;;4.49;49.12;100877.16;4997622;28;20064;-72
2021/10/25 12:52:31;;;;;;;0.50;0.50;;;;;;;4.34;49.73;100872.63;5013555;28;20470;-71
2021/10/25 12:55:01;;;;;;;0.60;0.60;;;;;;;4.52;49.02;100871.63;4980591;28;20523;-72
2021/10/25 12:57:35;;;;;;;0.60;0.60;;;;;;;4.75;49.28;100878.44;5013512;28;20550;-71
2021/10/25 13:00:08;;;;;;;0.60;0.60;;;;;;;5.33;48.21;100868.94;4996906;28;20053;-71
2021/10/25 13:02:43;;;;;;;0.60;0.60;;;;;;;5.07;48.49;100867.72;5030111;28;20053;-71
2021/10/25 13:05:22;;;;;;;0.60;0.60;;;;;;;4.80;49.46;100864.78;5029899;28;20053;-71
2021/10/25 13:07:50;;;;;;;0.60;0.60;;;;;;;4.90;49.27;100860.66;4980702;28;20088;-72
2021/10/25 13:10:18;;;;;;;0.60;0.60;;;;;;;4.93;49.32;100855.09;5031493;28;20497;-72
2021/10/25 13:12:44;;;;;;;0.57;0.57;;;;;;;4.82;49.94;100869.09;4996514;28;20490;-71
2021/10/25 13:15:10;;;;;;;0.50;0.50;;;;;;;4.60;50.18;100874.75;4996923;28;20409;-72
2021/10/25 13:17:36;;;;;;;0.60;0.60;;;;;;;4.42;50.56;100870.38;4996931;28;20069;-72
2021/10/25 13:20:04;;;;;;;0.52;0.52;;;;;;;4.63;50.25;100852.31;5012668;28;20068;-72
2021/10/25 13:22:30;;;;;;;0.52;0.52;;;;;;;4.53;50.62;100849.28;4996947;28;20053;-72
2021/10/25 13:24:57;;;;;;;0.60;0.60;;;;;;;4.45;51.13;100848.81;5006032;28;20053;-71
2021/10/25 13:27:23;;;;;;;0.50;0.50;;;;;;;3.92;51.74;100847.19;5009658;28;20056;-72